createdAt,value
2022-10-19T00:01:20.076Z,101671.69
2022-10-19T00:03:53.209Z,101669.03
2022-10-19T00:06:31.253Z,101674.91
2022-10-19T00:09:07.101Z,101671.22
2022-10-19T00:11:37.431Z,101667.22
2022-10-19T00:14:06.487Z,101672.56
2022-10-19T00:16:37.767Z,101674.53
2022-10-19T00:19:12.226Z,101680.56
2022-10-19T00:21:40.026Z,101670.53
2022-10-19T00:24:10.752Z,101670.53
2022-10-19T00:26:38.126Z,101660.47
2022-10-19T00:29:06.913Z,101673.38
2022-10-19T00:31:34.984Z,101674.31
2022-10-19T00:34:04.711Z,101672.53
2022-10-19T00:36:35.735Z,101671.94
2022-10-19T00:39:08.434Z,101666.00
2022-10-19T00:41:36.817Z,101664.91
2022-10-19T00:44:15.963Z,101664.22
2022-10-19T00:46:49.467Z,101667.53
2022-10-19T00:49:25.216Z,101668.38
2022-10-19T00:52:02.974Z,101672.09
2022-10-19T00:54:36.354Z,101668.16
2022-10-19T00:57:07.610Z,101667.78
2022-10-19T00:59:36.582Z,101677.06
2022-10-19T01:02:08.098Z,101665.78
2022-10-19T01:04:40.512Z,101673.69
2022-10-19T01:07:09.274Z,101665.50
2022-10-19T01:09:36.433Z,101664.56
2022-10-19T01:12:35.382Z,101658.81
2022-10-19T01:15:27.035Z,101652.69
2022-10-19T01:18:24.251Z,101651.03
2022-10-19T01:21:15.190Z,101656.69
2022-10-19T01:24:42.514Z,101654.28
2022-10-19T01:27:27.601Z,101660.25
2022-10-19T01:29:57.231Z,101656.19
2022-10-19T01:32:37.565Z,101656.16
2022-10-19T01:35:17.378Z,101661.72
2022-10-19T01:38:11.358Z,101649.13
2022-10-19T01:40:52.083Z,101646.94
2022-10-19T01:43:25.987Z,101648.22
2022-10-19T01:46:14.111Z,101645.88
2022-10-19T01:48:51.533Z,101637.03
2022-10-19T01:51:25.727Z,101630.63
2022-10-19T01:53:57.443Z,101630.34
2022-10-19T01:56:28.067Z,101628.91
2022-10-19T01:58:58.796Z,101640.03
2022-10-19T02:01:31.477Z,101633.78
2022-10-19T02:03:59.553Z,101634.31
2022-10-19T02:06:27.065Z,101632.84
2022-10-19T02:08:54.873Z,101630.13
2022-10-19T02:11:23.146Z,101621.59
2022-10-19T02:14:01.680Z,101625.91
2022-10-19T02:16:42.497Z,101617.66
2022-10-19T02:19:13.388Z,101618.06
2022-10-19T02:21:41.021Z,101617.47
2022-10-19T02:24:08.185Z,101616.41
2022-10-19T02:26:39.079Z,101608.78
2022-10-19T02:29:06.721Z,101602.66
2022-10-19T02:31:34.227Z,101597.38
2022-10-19T02:34:01.952Z,101590.09
2022-10-19T02:36:29.327Z,101597.88
2022-10-19T02:38:56.562Z,101587.66
2022-10-19T02:42:05.955Z,101603.91
2022-10-19T02:45:05.597Z,101587.16
2022-10-19T02:47:38.749Z,101583.09
2022-10-19T02:50:08.617Z,101586.88
2022-10-19T02:52:40.711Z,101591.41
2022-10-19T02:55:08.956Z,101595.16
2022-10-19T02:57:36.946Z,101604.75
2022-10-19T03:00:08.325Z,101602.16
2022-10-19T03:02:35.935Z,101596.47
2022-10-19T03:05:07.084Z,101595.16
2022-10-19T03:07:34.780Z,101593.53
2022-10-19T03:10:02.253Z,101590.75
2022-10-19T03:12:31.584Z,101588.22
2022-10-19T03:14:58.704Z,101590.56
2022-10-19T03:17:25.805Z,101593.31
2022-10-19T03:19:52.991Z,101590.09
2022-10-19T03:22:20.038Z,101597.16
2022-10-19T03:24:47.241Z,101604.72
2022-10-19T03:27:14.489Z,101606.63
2022-10-19T03:29:41.546Z,101600.34
2022-10-19T03:32:11.263Z,101600.25
2022-10-19T03:34:38.296Z,101604.03
2022-10-19T03:37:05.452Z,101604.72
2022-10-19T03:39:32.585Z,101603.13
2022-10-19T03:41:59.766Z,101597.19
2022-10-19T03:44:26.873Z,101600.34
2022-10-19T03:46:54.029Z,101602.63
2022-10-19T03:49:21.346Z,101601.19
2022-10-19T03:51:48.690Z,101603.09
2022-10-19T03:54:17.637Z,101602.63
2022-10-19T03:56:44.996Z,101603.09
2022-10-19T03:59:14.834Z,101602.16
2022-10-19T04:01:46.438Z,101607.09
2022-10-19T04:04:17.197Z,101595.81
2022-10-19T04:06:50.097Z,101599.41
2022-10-19T04:09:20.229Z,101604.75
2022-10-19T04:11:48.392Z,101611.94
2022-10-19T04:14:31.747Z,101612.22
2022-10-19T04:17:04.536Z,101611.56
2022-10-19T04:19:32.784Z,101622.03
2022-10-19T04:22:01.802Z,101629.81
2022-10-19T04:24:29.323Z,101616.31
2022-10-19T04:26:58.892Z,101629.72
2022-10-19T04:29:29.836Z,101630.22
2022-10-19T04:31:58.509Z,101632.94
2022-10-19T04:34:25.638Z,101634.38
2022-10-19T04:36:55.269Z,101636.63
2022-10-19T04:39:22.306Z,101626.50
2022-10-19T04:41:49.395Z,101625.75
2022-10-19T04:44:16.587Z,101614.31
2022-10-19T04:46:43.712Z,101622.38
2022-10-19T04:49:10.782Z,101622.78
2022-10-19T04:51:37.806Z,101627.41
2022-10-19T04:54:05.309Z,101617.06
2022-10-19T04:56:32.750Z,101616.81
2022-10-19T04:59:00.949Z,101609.56
2022-10-19T05:01:30.682Z,101619.94
2022-10-19T05:03:58.089Z,101617.53
2022-10-19T05:06:26.156Z,101616.31
2022-10-19T05:08:53.532Z,101614.69
2022-10-19T05:11:21.628Z,101620.47
2022-10-19T05:13:49.615Z,101615.69
2022-10-19T05:16:22.786Z,101619.09
2022-10-19T05:18:52.043Z,101619.94
2022-10-19T05:21:21.887Z,101616.53
2022-10-19T05:23:55.266Z,101618.53
2022-10-19T05:26:25.816Z,101620.50
2022-10-19T05:29:04.819Z,101619.47
2022-10-19T05:31:34.052Z,101619.16
2022-10-19T05:34:04.165Z,101625.63
2022-10-19T05:36:37.669Z,101634.25
2022-10-19T05:39:14.466Z,101634.19
2022-10-19T05:41:47.586Z,101634.66
2022-10-19T05:44:21.461Z,101632.97
2022-10-19T05:46:50.495Z,101638.44
2022-10-19T05:49:20.929Z,101640.94
2022-10-19T05:51:49.033Z,101652.34
2022-10-19T05:54:16.975Z,101640.81
2022-10-19T05:56:44.795Z,101643.34
2022-10-19T05:59:17.926Z,101650.28
2022-10-19T06:01:46.356Z,101656.72
2022-10-19T06:06:43.704Z,101652.44
2022-10-19T06:09:11.699Z,101655.09
2022-10-19T06:11:41.810Z,101648.72
2022-10-19T06:14:14.525Z,101656.88
2022-10-19T06:16:41.827Z,101661.94
2022-10-19T06:19:09.155Z,101655.69
2022-10-19T06:21:36.275Z,101661.84
2022-10-19T06:24:06.558Z,101659.16
2022-10-19T06:26:35.550Z,101663.66
2022-10-19T06:29:03.961Z,101662.00
2022-10-19T06:31:34.294Z,101665.31
2022-10-19T06:34:01.723Z,101664.91
2022-10-19T06:36:31.327Z,101665.13
2022-10-19T06:38:59.844Z,101668.38
2022-10-19T06:41:27.808Z,101676.91
2022-10-19T06:43:55.881Z,101680.75
2022-10-19T06:46:25.162Z,101680.63
2022-10-19T06:49:01.777Z,101685.63
2022-10-19T06:51:32.331Z,101690.19
2022-10-19T06:53:59.745Z,101698.16
2022-10-19T06:56:27.420Z,101697.81
2022-10-19T06:58:58.378Z,101695.63
2022-10-19T07:01:26.102Z,101692.88
2022-10-19T07:03:55.730Z,101697.72
2022-10-19T07:06:24.017Z,101692.66
2022-10-19T07:08:52.489Z,101701.56
2022-10-19T07:11:22.741Z,101707.47
2022-10-19T07:13:52.194Z,101704.09
2022-10-19T07:16:21.245Z,101709.13
2022-10-19T07:18:51.345Z,101705.63
2022-10-19T07:21:20.367Z,101716.72
2022-10-19T07:23:48.563Z,101718.72
2022-10-19T07:26:28.884Z,101718.78
2022-10-19T07:28:57.526Z,101721.16
2022-10-19T07:31:26.780Z,101730.41
2022-10-19T07:34:00.230Z,101734.19
2022-10-19T07:36:29.609Z,101738.47
2022-10-19T07:38:57.171Z,101740.34
2022-10-19T07:41:26.741Z,101752.72
2022-10-19T07:43:54.943Z,101753.72
2022-10-19T07:46:33.500Z,101753.13
2022-10-19T07:49:01.186Z,101762.50
2022-10-19T07:53:58.169Z,101765.22
2022-10-19T07:56:27.808Z,101775.81
2022-10-19T07:58:57.556Z,101766.84
2022-10-19T08:01:31.848Z,101771.06
2022-10-19T08:06:47.836Z,101773.19
2022-10-19T08:09:33.436Z,101765.63
2022-10-19T08:12:02.992Z,101772.84
2022-10-19T08:14:32.750Z,101778.09
2022-10-19T08:17:01.054Z,101781.13
2022-10-19T08:19:28.516Z,101776.59
2022-10-19T08:21:55.667Z,101781.00
2022-10-19T08:24:22.880Z,101781.81
2022-10-19T08:26:51.408Z,101790.59
2022-10-19T08:29:24.585Z,101782.75
2022-10-19T08:31:58.171Z,101792.34
2022-10-19T08:34:25.539Z,101789.00
2022-10-19T08:36:52.847Z,101782.44
2022-10-19T08:39:20.017Z,101790.06
2022-10-19T08:42:03.900Z,101798.38
2022-10-19T08:44:49.686Z,101794.53
2022-10-19T08:47:43.729Z,101805.09
2022-10-19T08:50:26.050Z,101806.25
2022-10-19T08:53:06.461Z,101813.25
2022-10-19T08:55:45.390Z,101811.97
2022-10-19T08:58:47.628Z,101817.31
2022-10-19T09:02:14.205Z,101816.13
2022-10-19T09:04:49.262Z,101820.06
2022-10-19T09:07:34.937Z,101821.41
2022-10-19T09:10:14.817Z,101824.81
2022-10-19T09:13:01.477Z,101819.16
2022-10-19T09:15:51.606Z,101818.59
2022-10-19T09:18:28.332Z,101830.69
2022-10-19T09:21:15.980Z,101833.72
2022-10-19T09:24:32.132Z,101829.31
2022-10-19T09:27:03.512Z,101840.84
2022-10-19T09:29:50.084Z,101836.16
2022-10-19T09:32:29.667Z,101834.75
2022-10-19T09:35:22.557Z,101832.28
2022-10-19T09:37:51.343Z,101843.50
2022-10-19T09:40:22.715Z,101835.72
2022-10-19T09:42:57.293Z,101843.66
2022-10-19T09:45:33.867Z,101839.00
2022-10-19T09:48:12.825Z,101843.00
2022-10-19T09:50:44.603Z,101849.06
2022-10-19T09:53:20.956Z,101856.31
2022-10-19T09:56:27.157Z,101850.59
2022-10-19T09:58:59.046Z,101857.16
2022-10-19T10:01:43.851Z,101857.75
2022-10-19T10:04:18.613Z,101851.97
2022-10-19T10:06:51.694Z,101857.13
2022-10-19T10:09:26.316Z,101860.41
2022-10-19T10:11:57.448Z,101865.56
2022-10-19T10:14:40.146Z,101863.47
2022-10-19T10:17:21.893Z,101873.50
2022-10-19T10:20:20.951Z,101886.88
2022-10-19T10:23:04.451Z,101884.41
2022-10-19T10:25:35.220Z,101884.91
2022-10-19T10:28:15.450Z,101887.78
2022-10-19T10:30:44.898Z,101879.28
2022-10-19T10:33:43.802Z,101884.03
2022-10-19T10:36:12.775Z,101887.13
2022-10-19T10:41:54.115Z,101903.84
2022-10-19T10:44:30.971Z,101895.22
2022-10-19T10:47:18.099Z,101888.16
2022-10-19T10:50:02.900Z,101901.00
2022-10-19T10:52:31.675Z,101899.03
2022-10-19T10:55:04.679Z,101896.91
2022-10-19T10:57:47.247Z,101895.75
2022-10-19T11:00:22.642Z,101898.22
2022-10-19T11:03:23.648Z,101895.13
2022-10-19T11:05:58.443Z,101899.38
2022-10-19T11:08:28.261Z,101906.44
2022-10-19T11:11:23.953Z,101899.91
2022-10-19T11:14:02.085Z,101909.63
2022-10-19T11:16:42.932Z,101902.66
2022-10-19T11:19:19.304Z,101898.59
2022-10-19T11:22:15.664Z,101914.13
2022-10-19T11:26:09.822Z,101913.72
2022-10-19T11:33:46.229Z,101915.97
2022-10-19T11:37:03.193Z,101923.31
2022-10-19T11:39:52.945Z,101910.56
2022-10-19T11:43:04.876Z,101902.06
2022-10-19T11:46:16.711Z,101906.75
2022-10-19T11:52:20.496Z,101907.78
2022-10-19T11:54:56.377Z,101910.81
2022-10-19T12:01:03.327Z,101903.47
2022-10-19T12:03:56.191Z,101913.34
2022-10-19T12:07:28.185Z,101906.88
2022-10-19T12:10:34.349Z,101914.06
2022-10-19T12:13:10.932Z,101918.72
2022-10-19T12:15:53.831Z,101932.53
2022-10-19T12:18:40.128Z,101926.81
2022-10-19T12:21:39.443Z,101918.78
2022-10-19T12:24:16.293Z,101929.34
2022-10-19T12:26:45.463Z,101922.25
2022-10-19T12:29:26.948Z,101924.09
2022-10-19T12:31:56.300Z,101926.06
2022-10-19T12:34:47.847Z,101919.16
2022-10-19T12:37:49.978Z,101924.22
2022-10-19T12:40:47.971Z,101922.81
2022-10-19T12:44:05.984Z,101930.06
2022-10-19T12:46:53.845Z,101929.97
2022-10-19T12:49:51.160Z,101920.78
2022-10-19T12:52:52.374Z,101932.81
2022-10-19T12:55:26.760Z,101933.28
2022-10-19T12:58:06.643Z,101931.69
2022-10-19T13:00:37.593Z,101925.94
2022-10-19T13:03:15.829Z,101931.53
2022-10-19T13:05:56.352Z,101936.66
2022-10-19T13:08:54.387Z,101933.88
2022-10-19T13:11:22.477Z,101939.03
2022-10-19T13:14:00.189Z,101945.81
2022-10-19T13:16:30.277Z,101945.78
2022-10-19T13:19:00.434Z,101951.72
2022-10-19T13:21:51.082Z,101960.53
2022-10-19T13:24:24.168Z,101962.59
2022-10-19T13:27:03.243Z,101966.94
2022-10-19T13:29:39.703Z,101959.88
2022-10-19T13:32:45.318Z,101964.78
2022-10-19T13:35:35.557Z,101957.59
2022-10-19T13:38:18.366Z,101960.91
2022-10-19T13:40:48.353Z,101966.97
2022-10-19T13:43:30.938Z,101974.53
2022-10-19T13:46:23.127Z,101975.63
2022-10-19T13:49:18.446Z,101961.63
2022-10-19T13:51:54.312Z,101981.00
2022-10-19T13:55:18.653Z,101988.47
2022-10-19T13:58:00.565Z,101998.50
2022-10-19T14:00:55.041Z,101988.03
2022-10-19T14:04:36.633Z,101986.47
2022-10-19T14:07:30.313Z,101991.16
2022-10-19T14:10:08.412Z,101994.03
2022-10-19T14:12:39.649Z,101996.16
2022-10-19T14:15:35.101Z,101991.06
2022-10-19T14:18:05.118Z,101993.19
2022-10-19T14:20:39.125Z,102003.50
2022-10-19T14:23:28.780Z,102004.84
2022-10-19T14:26:22.062Z,101996.72
2022-10-19T14:28:55.204Z,102003.97
2022-10-19T14:31:35.524Z,102004.16
2022-10-19T14:34:07.510Z,102006.44
2022-10-19T14:36:39.727Z,102006.03
2022-10-19T14:39:24.159Z,102017.59
2022-10-19T14:41:55.852Z,102009.63
2022-10-19T14:44:44.709Z,102022.63
2022-10-19T14:47:30.435Z,102027.66
2022-10-19T14:49:57.972Z,102021.72
2022-10-19T14:52:38.425Z,102026.06
2022-10-19T14:55:16.854Z,102024.50
2022-10-19T14:57:49.128Z,102030.25
2022-10-19T15:00:23.729Z,102034.44
2022-10-19T15:03:03.985Z,102041.41
2022-10-19T15:05:37.880Z,102042.91
2022-10-19T15:08:16.680Z,102045.59
2022-10-19T15:10:47.194Z,102050.19
2022-10-19T15:13:27.105Z,102052.91
2022-10-19T15:15:55.931Z,102054.75
2022-10-19T15:18:48.244Z,102063.47
2022-10-19T15:21:20.992Z,102060.41
2022-10-19T15:23:53.093Z,102061.69
2022-10-19T15:26:28.984Z,102069.00
2022-10-19T15:29:19.469Z,102077.47
2022-10-19T15:31:46.581Z,102069.84
2022-10-19T15:34:32.990Z,102071.16
2022-10-19T15:37:01.623Z,102073.50
2022-10-19T15:39:39.753Z,102071.66
2022-10-19T15:42:36.712Z,102067.19
2022-10-19T15:45:42.030Z,102065.03
2022-10-19T15:48:23.038Z,102068.69
2022-10-19T15:50:55.152Z,102068.16
2022-10-19T15:53:23.028Z,102062.19
2022-10-19T15:55:52.518Z,102072.56
2022-10-19T15:58:21.191Z,102078.16
2022-10-19T16:00:48.393Z,102081.81
2022-10-19T16:03:16.469Z,102091.53
2022-10-19T16:05:43.705Z,102095.38
2022-10-19T16:08:12.489Z,102097.00
2022-10-19T16:10:39.732Z,102093.44
2022-10-19T16:13:06.899Z,102100.91
2022-10-19T16:15:33.998Z,102105.50
2022-10-19T16:18:01.354Z,102101.97
2022-10-19T16:20:32.214Z,102112.09
2022-10-19T16:23:01.537Z,102108.56
2022-10-19T16:25:28.918Z,102115.47
2022-10-19T16:27:56.024Z,102111.47
2022-10-19T16:30:23.170Z,102106.06
2022-10-19T16:32:50.938Z,102111.34
2022-10-19T16:35:18.057Z,102116.66
2022-10-19T16:37:45.099Z,102116.53
2022-10-19T16:40:12.405Z,102119.09
2022-10-19T16:42:39.494Z,102117.56
2022-10-19T16:45:07.280Z,102126.09
2022-10-19T16:47:34.353Z,102124.28
2022-10-19T16:50:03.609Z,102128.03
2022-10-19T16:52:33.261Z,102130.63
2022-10-19T16:55:01.023Z,102131.50
2022-10-19T16:57:28.290Z,102129.19
2022-10-19T16:59:59.745Z,102123.19
2022-10-19T17:02:26.927Z,102132.09
2022-10-19T17:04:56.535Z,102134.38
2022-10-19T17:07:24.371Z,102135.28
2022-10-19T17:09:54.688Z,102136.72
2022-10-19T17:12:22.183Z,102137.13
2022-10-19T17:14:49.349Z,102140.88
2022-10-19T17:17:17.293Z,102135.72
2022-10-19T17:19:47.746Z,102149.78
2022-10-19T17:22:15.064Z,102141.91
2022-10-19T17:24:46.386Z,102149.88
2022-10-19T17:27:13.454Z,102144.78
2022-10-19T17:29:43.056Z,102150.19
2022-10-19T17:32:10.234Z,102152.44
2022-10-19T17:34:37.360Z,102142.59
2022-10-19T17:37:04.641Z,102144.22
2022-10-19T17:39:32.128Z,102141.41
2022-10-19T17:42:03.408Z,102144.97
2022-10-19T17:44:31.592Z,102154.75
2022-10-19T17:47:03.522Z,102161.88
2022-10-19T17:49:30.565Z,102167.00
2022-10-19T17:51:58.087Z,102173.72
2022-10-19T17:54:25.302Z,102180.13
2022-10-19T17:56:53.208Z,102179.00
2022-10-19T17:59:30.332Z,102179.38
2022-10-19T18:02:03.334Z,102185.75
2022-10-19T18:04:30.422Z,102184.63
2022-10-19T18:06:57.523Z,102188.13
2022-10-19T18:09:24.696Z,102185.38
2022-10-19T18:11:51.762Z,102189.13
2022-10-19T18:14:18.828Z,102191.63
2022-10-19T18:16:47.381Z,102195.56
2022-10-19T18:19:16.658Z,102188.91
2022-10-19T18:21:46.466Z,102193.25
2022-10-19T18:24:21.713Z,102186.41
2022-10-19T18:26:50.696Z,102196.88
2022-10-19T18:29:27.637Z,102200.38
2022-10-19T18:31:59.328Z,102194.38
2022-10-19T18:34:27.950Z,102202.56
2022-10-19T18:36:55.348Z,102207.88
2022-10-19T18:39:23.216Z,102204.25
2022-10-19T18:41:56.847Z,102206.78
2022-10-19T18:44:27.096Z,102206.78
2022-10-19T18:46:57.250Z,102203.88
2022-10-19T18:49:25.241Z,102205.38
2022-10-19T18:51:55.379Z,102213.44
2022-10-19T18:54:27.954Z,102210.94
2022-10-19T18:56:55.702Z,102209.84
2022-10-19T18:59:25.270Z,102208.81
2022-10-19T19:01:52.538Z,102216.06
2022-10-19T19:04:19.960Z,102221.50
2022-10-19T19:06:47.152Z,102221.38
2022-10-19T19:09:14.320Z,102217.16
2022-10-19T19:11:41.664Z,102226.38
2022-10-19T19:14:13.654Z,102227.84
2022-10-19T19:16:42.493Z,102228.13
2022-10-19T19:19:12.006Z,102233.22
2022-10-19T19:21:41.883Z,102233.25
2022-10-19T19:24:10.603Z,102235.75
2022-10-19T19:26:42.098Z,102235.16
2022-10-19T19:29:09.610Z,102235.53
2022-10-19T19:31:41.192Z,102243.88
2022-10-19T19:34:09.519Z,102228.75
2022-10-19T19:36:38.184Z,102233.41
2022-10-19T19:39:06.160Z,102228.47
2022-10-19T19:41:34.291Z,102228.06
2022-10-19T19:44:09.592Z,102233.03
2022-10-19T19:46:37.918Z,102228.69
2022-10-19T19:49:05.585Z,102231.16
2022-10-19T19:51:33.528Z,102231.53
2022-10-19T19:54:00.777Z,102238.09
2022-10-19T19:56:29.123Z,102235.47
2022-10-19T19:58:59.403Z,102242.19
2022-10-19T20:01:29.480Z,102238.28
2022-10-19T20:03:59.316Z,102251.31
2022-10-19T20:06:26.734Z,102247.28
2022-10-19T20:08:56.469Z,102244.00
2022-10-19T20:11:28.746Z,102253.59
2022-10-19T20:13:55.935Z,102245.66
2022-10-19T20:16:29.247Z,102246.38
2022-10-19T20:19:05.384Z,102252.94
2022-10-19T20:21:33.780Z,102255.41
2022-10-19T20:24:01.566Z,102252.75
2022-10-19T20:26:33.548Z,102254.47
2022-10-19T20:29:08.727Z,102258.28
2022-10-19T20:31:39.672Z,102261.97
2022-10-19T20:34:14.067Z,102270.56
2022-10-19T20:36:44.539Z,102266.84
2022-10-19T20:39:14.721Z,102270.06
2022-10-19T20:41:42.013Z,102267.28
2022-10-19T20:44:09.123Z,102275.44
2022-10-19T20:46:37.216Z,102277.66
2022-10-19T20:49:08.636Z,102271.91
2022-10-19T20:51:36.976Z,102278.50
2022-10-19T20:54:12.280Z,102277.78
2022-10-19T20:56:41.355Z,102276.22
2022-10-19T20:59:16.217Z,102272.84
2022-10-19T21:01:45.373Z,102272.72
2022-10-19T21:04:14.367Z,102282.19
2022-10-19T21:06:48.165Z,102276.75
2022-10-19T21:09:19.304Z,102275.72
2022-10-19T21:11:48.369Z,102284.69
2022-10-19T21:14:25.285Z,102283.00
2022-10-19T21:16:59.791Z,102278.81
2022-10-19T21:19:29.541Z,102287.06
2022-10-19T21:22:02.290Z,102285.88
2022-10-19T21:24:36.096Z,102292.31
2022-10-19T21:27:07.606Z,102287.81
2022-10-19T21:29:36.052Z,102285.16
2022-10-19T21:32:04.158Z,102294.09
2022-10-19T21:34:38.233Z,102296.03
2022-10-19T21:37:14.682Z,102289.69
2022-10-19T21:39:52.763Z,102292.88
2022-10-19T21:42:30.376Z,102295.47
2022-10-19T21:45:06.277Z,102299.78
2022-10-19T21:47:39.151Z,102296.53
2022-10-19T21:50:08.763Z,102300.59
2022-10-19T21:52:36.310Z,102304.66
2022-10-19T21:55:03.637Z,102304.56
2022-10-19T21:57:30.804Z,102297.41
2022-10-19T21:59:57.888Z,102300.38
2022-10-19T22:02:24.916Z,102300.38
2022-10-19T22:04:52.093Z,102302.94
2022-10-19T22:07:19.201Z,102292.56
2022-10-19T22:09:46.303Z,102284.00
2022-10-19T22:14:45.380Z,102297.94
2022-10-19T22:17:16.125Z,102294.13
2022-10-19T22:19:43.380Z,102284.53
2022-10-19T22:22:10.420Z,102289.47
2022-10-19T22:24:37.685Z,102290.63
2022-10-19T22:27:04.787Z,102301.81
2022-10-19T22:29:31.877Z,102299.09
2022-10-19T22:31:59.189Z,102297.94
2022-10-19T22:34:26.283Z,102302.28
2022-10-19T22:36:53.472Z,102296.78
2022-10-19T22:39:20.830Z,102296.78
2022-10-19T22:43:06.139Z,102295.03
2022-10-19T22:45:33.986Z,102303.03
2022-10-19T22:48:01.035Z,102302.94
2022-10-19T22:50:28.122Z,102302.22
2022-10-19T22:52:55.354Z,102300.22
2022-10-19T22:55:22.499Z,102301.97
2022-10-19T22:57:52.158Z,102309.81
2022-10-19T23:00:21.706Z,102313.22
2022-10-19T23:02:48.906Z,102315.59
2022-10-19T23:05:19.080Z,102315.22
2022-10-19T23:07:46.171Z,102314.63
2022-10-19T23:10:13.398Z,102311.69
2022-10-19T23:12:43.088Z,102309.44
2022-10-19T23:15:10.856Z,102304.63
2022-10-19T23:17:38.112Z,102313.09
2022-10-19T23:20:11.226Z,102317.84
2022-10-19T23:22:38.678Z,102311.38
2022-10-19T23:25:06.872Z,102315.72
2022-10-19T23:27:35.312Z,102315.75
2022-10-19T23:30:05.527Z,102311.25
2022-10-19T23:32:32.635Z,102319.84
2022-10-19T23:35:04.091Z,102329.53
2022-10-19T23:37:31.295Z,102341.91
2022-10-19T23:39:58.353Z,102328.94
2022-10-19T23:42:28.084Z,102336.22
2022-10-19T23:44:55.254Z,102332.72
2022-10-19T23:47:22.485Z,102341.94
2022-10-19T23:49:51.618Z,102340.03
2022-10-19T23:52:18.736Z,102347.63
2022-10-19T23:54:48.258Z,102344.22
2022-10-19T23:57:15.387Z,102335.41
2022-10-19T23:59:42.460Z,102346.13
